createdAt,value
2022-07-25T00:00:37.866Z,21.70
2022-07-25T00:03:06.589Z,21.80
2022-07-25T00:05:38.741Z,21.70
2022-07-25T00:08:08.226Z,21.70
2022-07-25T00:10:36.161Z,21.70
2022-07-25T00:13:04.169Z,21.50
2022-07-25T00:15:32.332Z,21.50
2022-07-25T00:18:00.281Z,21.60
2022-07-25T00:20:28.493Z,21.40
2022-07-25T00:22:56.419Z,21.40
2022-07-25T00:25:26.057Z,21.40
2022-07-25T00:27:53.952Z,21.40
2022-07-25T00:30:22.048Z,21.40
2022-07-25T00:32:49.975Z,21.50
2022-07-25T00:35:18.029Z,21.40
2022-07-25T00:37:45.966Z,21.20
2022-07-25T00:40:14.440Z,21.40
2022-07-25T00:42:43.687Z,21.40
2022-07-25T00:45:12.382Z,21.40
2022-07-25T00:47:40.297Z,21.30
2022-07-25T00:50:09.777Z,21.20
2022-07-25T00:52:38.042Z,21.30
2022-07-25T00:55:07.679Z,21.20
2022-07-25T00:57:35.629Z,21.20
2022-07-25T01:00:08.615Z,21.20
2022-07-25T01:02:36.685Z,21.20
2022-07-25T01:05:06.497Z,21.30
2022-07-25T01:07:34.779Z,21.20
2022-07-25T01:10:02.934Z,21.20
2022-07-25T01:12:30.933Z,21.30
2022-07-25T01:14:59.346Z,21.30
2022-07-25T01:17:28.658Z,21.30
2022-07-25T01:19:56.566Z,21.30
2022-07-25T01:22:25.850Z,21.30
2022-07-25T01:24:53.775Z,21.20
2022-07-25T01:27:21.691Z,21.20
2022-07-25T01:29:49.596Z,21.20
2022-07-25T01:32:17.517Z,21.10
2022-07-25T01:34:45.442Z,21.00
2022-07-25T01:37:13.339Z,21.00
2022-07-25T01:39:42.626Z,20.90
2022-07-25T01:42:10.596Z,20.90
2022-07-25T01:44:38.531Z,20.90
2022-07-25T01:47:06.824Z,21.10
2022-07-25T01:49:35.296Z,21.00
2022-07-25T01:52:03.203Z,21.00
2022-07-25T01:54:32.136Z,21.00
2022-07-25T01:57:01.465Z,20.90
2022-07-25T01:59:29.710Z,20.80
2022-07-25T02:01:57.907Z,20.90
2022-07-25T02:04:25.927Z,20.90
2022-07-25T02:06:53.993Z,20.80
2022-07-25T02:09:22.197Z,20.90
2022-07-25T02:11:50.283Z,21.00
2022-07-25T02:14:19.531Z,20.80
2022-07-25T02:16:47.794Z,20.80
2022-07-25T02:19:15.900Z,20.70
2022-07-25T02:21:44.355Z,20.70
2022-07-25T02:24:12.296Z,20.60
2022-07-25T02:26:40.309Z,20.70
2022-07-25T02:29:08.292Z,20.60
2022-07-25T02:31:37.552Z,20.80
2022-07-25T02:34:05.838Z,20.70
2022-07-25T02:36:34.048Z,20.80
2022-07-25T02:39:01.965Z,20.60
2022-07-25T02:41:29.922Z,20.60
2022-07-25T02:43:58.131Z,20.60
2022-07-25T02:46:26.113Z,20.60
2022-07-25T02:48:55.434Z,20.60
2022-07-25T02:51:23.404Z,20.40
2022-07-25T02:53:58.288Z,20.40
2022-07-25T02:56:30.192Z,20.50
2022-07-25T02:59:00.148Z,20.50
2022-07-25T03:01:28.345Z,20.50
2022-07-25T03:03:57.748Z,20.50
2022-07-25T03:06:25.917Z,20.50
2022-07-25T03:08:54.065Z,20.40
2022-07-25T03:11:22.236Z,20.40
2022-07-25T03:13:50.340Z,20.40
2022-07-25T03:16:18.406Z,20.40
2022-07-25T03:18:46.915Z,20.40
2022-07-25T03:21:16.216Z,20.30
2022-07-25T03:23:46.864Z,20.30
2022-07-25T03:26:18.096Z,20.30
2022-07-25T03:28:46.068Z,20.30
2022-07-25T03:31:14.064Z,20.20
2022-07-25T03:33:41.980Z,20.30
2022-07-25T03:36:10.498Z,20.30
2022-07-25T03:38:40.234Z,20.30
2022-07-25T03:41:08.200Z,20.30
2022-07-25T03:43:36.215Z,20.20
2022-07-25T03:46:04.390Z,20.30
2022-07-25T03:48:32.397Z,20.20
2022-07-25T03:51:06.876Z,20.20
2022-07-25T03:53:55.439Z,20.20
2022-07-25T03:56:25.243Z,20.20
2022-07-25T03:58:53.234Z,20.20
2022-07-25T04:01:21.922Z,20.20
2022-07-25T04:03:50.472Z,20.10
2022-07-25T04:06:18.678Z,20.00
2022-07-25T04:08:47.453Z,20.10
2022-07-25T04:11:15.445Z,20.10
2022-07-25T04:13:44.784Z,20.20
2022-07-25T04:16:22.148Z,20.10
2022-07-25T04:18:51.040Z,20.10
2022-07-25T04:21:20.070Z,20.20
2022-07-25T04:23:48.450Z,20.10
2022-07-25T04:26:16.470Z,20.10
2022-07-25T04:28:46.083Z,20.00
2022-07-25T04:31:14.161Z,20.10
2022-07-25T04:33:43.194Z,20.10
2022-07-25T04:36:11.445Z,20.10
2022-07-25T04:38:39.560Z,20.20
2022-07-25T04:41:07.621Z,20.20
2022-07-25T04:43:35.574Z,20.20
2022-07-25T04:46:05.168Z,20.30
2022-07-25T04:48:33.300Z,20.30
2022-07-25T04:51:01.262Z,20.40
2022-07-25T04:53:29.430Z,20.40
2022-07-25T04:55:57.404Z,20.50
2022-07-25T04:58:25.382Z,20.50
2022-07-25T05:00:53.407Z,20.60
2022-07-25T05:03:22.881Z,20.60
2022-07-25T05:05:51.607Z,20.70
2022-07-25T05:08:19.669Z,20.80
2022-07-25T05:10:47.669Z,20.80
2022-07-25T05:13:16.264Z,20.90
2022-07-25T05:15:44.231Z,20.90
2022-07-25T05:18:12.161Z,21.00
2022-07-25T05:20:41.769Z,21.10
2022-07-25T05:23:09.717Z,21.20
2022-07-25T05:25:37.673Z,21.30
2022-07-25T05:28:06.280Z,21.30
2022-07-25T05:30:39.337Z,21.40
2022-07-25T05:33:08.083Z,21.50
2022-07-25T05:35:36.304Z,21.60
2022-07-25T05:38:06.540Z,21.70
2022-07-25T05:40:34.584Z,21.70
2022-07-25T05:43:03.426Z,21.70
2022-07-25T05:45:32.882Z,21.80
2022-07-25T05:48:00.895Z,21.90
2022-07-25T05:50:28.835Z,22.00
2022-07-25T05:52:56.786Z,22.10
2022-07-25T05:55:26.097Z,22.20
2022-07-25T05:57:54.186Z,22.30
2022-07-25T06:00:22.224Z,22.40
2022-07-25T06:02:50.355Z,22.50
2022-07-25T06:05:18.456Z,22.60
2022-07-25T06:07:46.430Z,22.70
2022-07-25T06:10:14.405Z,22.80
2022-07-25T06:12:43.691Z,22.90
2022-07-25T06:15:19.736Z,23.00
2022-07-25T06:17:51.229Z,23.10
2022-07-25T06:20:19.398Z,23.20
2022-07-25T06:22:47.317Z,23.30
2022-07-25T06:25:15.993Z,23.30
2022-07-25T06:27:45.529Z,23.40
2022-07-25T06:30:19.605Z,23.50
2022-07-25T06:32:48.046Z,23.60
2022-07-25T06:35:16.326Z,23.70
2022-07-25T06:37:44.319Z,23.80
2022-07-25T06:40:12.750Z,23.90
2022-07-25T06:42:41.487Z,24.00
2022-07-25T06:45:13.102Z,24.10
2022-07-25T06:47:42.997Z,24.20
2022-07-25T06:50:13.671Z,24.30
2022-07-25T06:52:42.951Z,24.40
2022-07-25T06:55:13.379Z,24.60
2022-07-25T06:57:42.026Z,24.70
2022-07-25T07:00:14.641Z,24.80
2022-07-25T07:02:55.994Z,25.00
2022-07-25T07:05:25.647Z,25.10
2022-07-25T07:07:54.022Z,25.30
2022-07-25T07:10:23.190Z,25.40
2022-07-25T07:12:52.444Z,25.70
2022-07-25T07:15:21.740Z,25.90
2022-07-25T07:17:50.534Z,26.10
2022-07-25T07:20:18.528Z,26.20
2022-07-25T07:22:47.874Z,26.40
2022-07-25T07:25:17.240Z,26.60
2022-07-25T07:27:48.744Z,26.70
2022-07-25T07:30:20.850Z,27.00
2022-07-25T07:32:53.385Z,27.20
2022-07-25T07:35:21.383Z,27.40
2022-07-25T07:37:50.267Z,27.50
2022-07-25T07:40:18.342Z,27.70
2022-07-25T07:42:50.049Z,27.80
2022-07-25T07:45:21.455Z,28.00
2022-07-25T07:47:53.670Z,28.10
2022-07-25T07:50:25.729Z,28.20
2022-07-25T07:52:55.497Z,28.30
2022-07-25T07:55:42.222Z,28.50
2022-07-25T07:58:11.021Z,28.60
2022-07-25T08:00:40.195Z,28.70
2022-07-25T08:03:10.394Z,28.90
2022-07-25T08:05:41.424Z,29.00
2022-07-25T08:08:14.242Z,29.00
2022-07-25T08:10:45.364Z,29.20
2022-07-25T08:13:16.034Z,29.20
2022-07-25T08:15:45.982Z,29.20
2022-07-25T08:18:17.394Z,29.40
2022-07-25T08:20:46.277Z,29.50
2022-07-25T08:23:14.488Z,29.60
2022-07-25T08:25:43.292Z,29.70
2022-07-25T08:28:11.977Z,29.80
2022-07-25T08:30:42.782Z,30.00
2022-07-25T08:33:13.921Z,30.00
2022-07-25T08:35:48.831Z,30.10
2022-07-25T08:38:18.301Z,30.30
2022-07-25T08:40:46.713Z,30.20
2022-07-25T08:43:17.509Z,30.30
2022-07-25T08:45:47.673Z,30.30
2022-07-25T08:48:19.203Z,30.20
2022-07-25T08:50:50.029Z,30.20
2022-07-25T08:53:36.123Z,30.40
2022-07-25T08:56:13.350Z,30.50
2022-07-25T08:58:44.736Z,30.60
2022-07-25T09:01:13.559Z,30.70
2022-07-25T09:03:43.233Z,30.70
2022-07-25T09:06:23.127Z,30.80
2022-07-25T09:08:56.574Z,30.70
2022-07-25T09:11:31.185Z,30.80
2022-07-25T09:14:02.452Z,30.90
2022-07-25T09:16:32.162Z,31.10
2022-07-25T09:19:11.980Z,31.30
2022-07-25T09:21:44.365Z,31.10
2022-07-25T09:24:17.547Z,31.30
2022-07-25T09:26:53.340Z,31.20
2022-07-25T09:29:24.745Z,31.30
2022-07-25T09:31:55.247Z,31.40
2022-07-25T09:34:35.723Z,31.40
2022-07-25T09:37:07.729Z,31.60
2022-07-25T09:39:46.328Z,31.70
2022-07-25T09:42:23.906Z,31.70
2022-07-25T09:45:09.941Z,31.70
2022-07-25T09:47:40.432Z,31.80
2022-07-25T09:50:09.749Z,32.00
2022-07-25T09:52:40.597Z,32.10
2022-07-25T09:55:10.961Z,32.20
2022-07-25T09:57:39.226Z,32.30
2022-07-25T10:00:09.956Z,32.30
2022-07-25T10:02:52.414Z,32.10
2022-07-25T10:05:38.491Z,32.20
2022-07-25T10:08:09.622Z,32.50
2022-07-25T10:10:43.869Z,32.50
2022-07-25T10:13:17.718Z,32.60
2022-07-25T10:15:52.427Z,32.60
2022-07-25T10:18:24.608Z,32.70
2022-07-25T10:20:57.421Z,32.60
2022-07-25T10:23:29.067Z,32.90
2022-07-25T10:26:09.362Z,33.20
2022-07-25T10:28:44.127Z,33.20
2022-07-25T10:31:25.114Z,33.20
2022-07-25T10:33:57.174Z,32.90
2022-07-25T10:36:28.758Z,33.00
2022-07-25T10:39:02.429Z,33.30
2022-07-25T10:41:30.820Z,33.50
2022-07-25T10:44:03.574Z,33.80
2022-07-25T10:46:36.097Z,33.60
2022-07-25T10:49:07.425Z,33.80
2022-07-25T10:51:41.499Z,33.60
2022-07-25T10:54:16.899Z,33.60
2022-07-25T10:56:57.125Z,33.80
2022-07-25T10:59:31.790Z,33.80
2022-07-25T11:02:00.624Z,33.80
2022-07-25T11:04:29.310Z,33.90
2022-07-25T11:06:57.756Z,33.80
2022-07-25T11:09:29.614Z,33.70
2022-07-25T11:12:00.058Z,33.90
2022-07-25T11:14:33.388Z,34.00
2022-07-25T11:17:16.810Z,34.00
2022-07-25T11:19:55.094Z,34.10
2022-07-25T11:22:23.150Z,34.30
2022-07-25T11:24:52.648Z,34.20
2022-07-25T11:27:27.345Z,34.40
2022-07-25T11:30:06.276Z,34.20
2022-07-25T11:32:40.666Z,34.30
2022-07-25T11:35:10.596Z,34.40
2022-07-25T11:37:42.076Z,34.40
2022-07-25T11:40:12.053Z,34.50
2022-07-25T11:42:42.358Z,34.20
2022-07-25T11:45:19.603Z,34.10
2022-07-25T11:47:50.149Z,34.20
2022-07-25T11:50:18.434Z,34.60
2022-07-25T11:52:46.667Z,34.90
2022-07-25T11:55:18.831Z,34.90
2022-07-25T11:57:48.550Z,34.80
2022-07-25T12:00:19.918Z,35.10
2022-07-25T12:02:49.695Z,35.20
2022-07-25T12:05:22.833Z,34.90
2022-07-25T12:07:53.492Z,35.00
2022-07-25T12:10:25.286Z,34.90
2022-07-25T12:12:57.062Z,34.80
2022-07-25T12:15:28.573Z,34.90
2022-07-25T12:17:58.466Z,34.90
2022-07-25T12:20:29.714Z,35.30
2022-07-25T12:23:01.836Z,35.40
2022-07-25T12:25:31.650Z,35.50
2022-07-25T12:28:00.886Z,35.80
2022-07-25T12:30:31.144Z,35.70
2022-07-25T12:33:00.804Z,35.60
2022-07-25T12:35:29.509Z,35.70
2022-07-25T12:37:58.034Z,36.00
2022-07-25T12:40:27.020Z,35.80
2022-07-25T12:42:57.339Z,36.00
2022-07-25T12:45:25.942Z,36.20
2022-07-25T12:47:54.334Z,36.40
2022-07-25T12:50:25.554Z,36.30
2022-07-25T12:52:53.568Z,35.60
2022-07-25T12:55:21.980Z,35.50
2022-07-25T12:57:51.062Z,35.50
2022-07-25T13:00:23.393Z,35.40
2022-07-25T13:02:53.329Z,35.30
2022-07-25T13:05:21.426Z,35.20
2022-07-25T13:07:50.261Z,34.90
2022-07-25T13:10:21.461Z,34.70
2022-07-25T13:12:49.466Z,35.00
2022-07-25T13:15:20.503Z,35.10
2022-07-25T13:17:50.369Z,35.00
2022-07-25T13:20:18.379Z,35.10
2022-07-25T13:22:46.361Z,34.80
2022-07-25T13:25:14.496Z,34.60
2022-07-25T13:27:42.416Z,34.70
2022-07-25T13:30:11.612Z,34.60
2022-07-25T13:32:39.626Z,34.40
2022-07-25T13:35:09.751Z,34.30
2022-07-25T13:37:37.791Z,34.40
2022-07-25T13:40:07.563Z,34.40
2022-07-25T13:42:35.540Z,34.60
2022-07-25T13:45:03.573Z,34.60
2022-07-25T13:47:35.331Z,34.60
2022-07-25T13:50:03.478Z,34.80
2022-07-25T13:52:32.842Z,35.00
2022-07-25T13:55:00.755Z,35.10
2022-07-25T13:57:28.690Z,35.00
2022-07-25T13:59:56.953Z,35.20
2022-07-25T14:02:25.028Z,35.00
2022-07-25T14:04:54.122Z,35.00
2022-07-25T14:07:22.055Z,34.90
2022-07-25T14:09:51.348Z,34.70
2022-07-25T14:12:19.277Z,34.70
2022-07-25T14:14:47.211Z,34.60
2022-07-25T14:17:15.298Z,34.70
2022-07-25T14:19:43.281Z,34.60
2022-07-25T14:22:11.568Z,34.50
2022-07-25T14:24:39.827Z,34.30
2022-07-25T14:27:10.506Z,34.10
2022-07-25T14:29:38.968Z,34.00
2022-07-25T14:32:08.206Z,33.90
2022-07-25T14:34:37.852Z,34.10
2022-07-25T14:37:07.778Z,34.20
2022-07-25T14:39:36.356Z,34.40
2022-07-25T14:42:05.220Z,34.40
2022-07-25T14:44:34.542Z,34.20
2022-07-25T14:47:12.091Z,34.00
2022-07-25T14:49:41.527Z,34.00
2022-07-25T14:52:09.503Z,33.90
2022-07-25T14:54:37.417Z,34.00
2022-07-25T14:57:05.947Z,34.10
2022-07-25T14:59:35.274Z,34.20
2022-07-25T15:02:03.698Z,34.10
2022-07-25T15:04:31.674Z,34.20
2022-07-25T15:06:59.933Z,34.10
2022-07-25T15:09:28.200Z,34.20
2022-07-25T15:11:56.280Z,34.00
2022-07-25T15:14:24.185Z,34.00
2022-07-25T15:16:53.559Z,34.10
2022-07-25T15:19:21.544Z,34.00
2022-07-25T15:21:49.496Z,33.90
2022-07-25T15:24:17.440Z,33.90
2022-07-25T15:26:45.470Z,33.80
2022-07-25T15:29:18.632Z,33.70
2022-07-25T15:31:46.823Z,33.60
2022-07-25T15:34:16.417Z,33.60
2022-07-25T15:36:44.364Z,33.60
2022-07-25T15:39:12.320Z,33.60
2022-07-25T15:41:40.255Z,33.40
2022-07-25T15:44:08.184Z,33.40
2022-07-25T15:46:36.302Z,33.50
2022-07-25T15:49:04.700Z,33.40
2022-07-25T15:51:34.241Z,33.40
2022-07-25T15:54:02.183Z,33.50
2022-07-25T15:56:30.455Z,33.40
2022-07-25T15:58:58.403Z,33.30
2022-07-25T16:01:26.415Z,33.30
2022-07-25T16:03:55.264Z,33.20
2022-07-25T16:06:23.465Z,33.20
2022-07-25T16:08:53.060Z,33.30
2022-07-25T16:11:26.862Z,33.30
2022-07-25T16:13:55.094Z,33.30
2022-07-25T16:16:23.325Z,33.30
2022-07-25T16:18:51.338Z,33.30
2022-07-25T16:21:19.587Z,33.50
2022-07-25T16:23:47.578Z,33.60
2022-07-25T16:26:16.868Z,33.60
2022-07-25T16:28:45.355Z,33.60
2022-07-25T16:31:13.551Z,33.60
2022-07-25T16:33:41.544Z,33.50
2022-07-25T16:36:12.042Z,33.50
2022-07-25T16:38:40.066Z,33.40
2022-07-25T16:41:08.007Z,33.30
2022-07-25T16:43:37.285Z,33.20
2022-07-25T16:46:05.515Z,33.10
2022-07-25T16:48:33.624Z,33.00
2022-07-25T16:51:01.629Z,32.90
2022-07-25T16:53:29.548Z,32.90
2022-07-25T16:55:57.493Z,32.90
2022-07-25T16:58:25.462Z,32.80
2022-07-25T17:00:54.744Z,32.80
2022-07-25T17:03:22.728Z,32.70
2022-07-25T17:05:51.729Z,32.70
2022-07-25T17:08:19.803Z,32.70
2022-07-25T17:10:48.284Z,32.70
2022-07-25T17:13:16.297Z,32.60
2022-07-25T17:15:45.485Z,32.60
2022-07-25T17:18:15.078Z,32.50
2022-07-25T17:20:43.104Z,32.50
2022-07-25T17:23:11.091Z,32.40
2022-07-25T17:25:40.305Z,32.40
2022-07-25T17:28:09.274Z,32.40
2022-07-25T17:30:37.270Z,32.40
2022-07-25T17:33:05.376Z,32.40
2022-07-25T17:35:34.768Z,32.40
2022-07-25T17:38:02.715Z,32.30
2022-07-25T17:40:30.697Z,32.30
2022-07-25T17:42:58.792Z,32.10
2022-07-25T17:45:27.210Z,32.00
2022-07-25T17:47:55.475Z,31.90
2022-07-25T17:50:29.187Z,31.90
2022-07-25T17:53:00.022Z,31.90
2022-07-25T17:55:28.774Z,31.80
2022-07-25T17:57:59.589Z,31.70
2022-07-25T18:00:28.265Z,31.70
2022-07-25T18:02:56.608Z,31.70
2022-07-25T18:05:24.926Z,31.60
2022-07-25T18:07:53.844Z,31.60
2022-07-25T18:10:23.388Z,31.50
2022-07-25T18:12:51.434Z,31.40
2022-07-25T18:15:19.383Z,31.40
2022-07-25T18:17:49.331Z,31.40
2022-07-25T18:20:19.403Z,31.30
2022-07-25T18:22:47.505Z,31.30
2022-07-25T18:25:16.411Z,31.20
2022-07-25T18:27:48.187Z,31.30
2022-07-25T18:30:17.029Z,31.30
2022-07-25T18:32:45.637Z,31.30
2022-07-25T18:35:14.074Z,31.20
2022-07-25T18:37:42.502Z,31.00
2022-07-25T18:40:12.334Z,30.90
2022-07-25T18:42:40.887Z,30.90
2022-07-25T18:45:12.155Z,30.90
2022-07-25T18:47:40.353Z,30.80
2022-07-25T18:50:09.658Z,30.70
2022-07-25T18:52:37.902Z,30.60
2022-07-25T18:55:08.785Z,30.60
2022-07-25T18:57:37.316Z,30.40
2022-07-25T19:00:07.273Z,30.40
2022-07-25T19:02:36.559Z,30.30
2022-07-25T19:05:05.449Z,30.20
2022-07-25T19:07:34.794Z,30.20
2022-07-25T19:10:03.152Z,30.10
2022-07-25T19:12:31.158Z,30.00
2022-07-25T19:14:59.164Z,29.90
2022-07-25T19:17:27.304Z,29.90
2022-07-25T19:19:56.682Z,29.80
2022-07-25T19:22:24.621Z,29.80
2022-07-25T19:24:52.722Z,29.80
2022-07-25T19:27:21.729Z,29.70
2022-07-25T19:29:49.715Z,29.70
2022-07-25T19:32:18.264Z,29.70
2022-07-25T19:34:46.561Z,29.60
2022-07-25T19:37:16.070Z,29.60
2022-07-25T19:39:44.252Z,29.60
2022-07-25T19:42:12.296Z,29.50
2022-07-25T19:44:40.333Z,29.50
2022-07-25T19:47:11.616Z,29.40
2022-07-25T19:49:40.785Z,29.30
2022-07-25T19:52:10.229Z,29.20
2022-07-25T19:54:40.094Z,29.20
2022-07-25T19:57:08.154Z,29.10
2022-07-25T19:59:36.225Z,29.10
2022-07-25T20:02:05.020Z,29.10
2022-07-25T20:04:33.005Z,29.10
2022-07-25T20:07:02.295Z,29.10
2022-07-25T20:09:30.495Z,29.00
2022-07-25T20:12:00.118Z,28.90
2022-07-25T20:14:28.065Z,28.20
2022-07-25T20:16:56.146Z,25.50
2022-07-25T20:19:24.723Z,21.60
2022-07-25T20:21:53.092Z,20.70
2022-07-25T20:24:21.746Z,20.70
2022-07-25T20:26:50.131Z,20.90
2022-07-25T20:29:19.749Z,21.00
2022-07-25T20:31:47.759Z,21.30
2022-07-25T20:34:16.899Z,21.30
2022-07-25T20:36:47.872Z,21.40
2022-07-25T20:39:16.012Z,21.30
2022-07-25T20:41:44.742Z,21.50
2022-07-25T20:44:13.177Z,21.70
2022-07-25T20:46:42.522Z,21.40
2022-07-25T20:49:13.707Z,21.20
2022-07-25T20:51:42.030Z,21.00
2022-07-25T20:54:12.876Z,21.00
2022-07-25T20:56:41.014Z,21.00
2022-07-25T20:59:09.493Z,21.10
2022-07-25T21:01:38.164Z,21.30
2022-07-25T21:04:08.146Z,21.10
2022-07-25T21:06:36.883Z,21.00
2022-07-25T21:09:06.147Z,21.10
2022-07-25T21:11:35.702Z,21.10
2022-07-25T21:14:04.527Z,21.20
2022-07-25T21:16:33.679Z,21.50
2022-07-25T21:19:01.728Z,21.50
2022-07-25T21:21:31.659Z,21.60
2022-07-25T21:23:59.630Z,21.70
2022-07-25T21:26:27.503Z,21.60
2022-07-25T21:28:55.449Z,21.50
2022-07-25T21:31:23.714Z,21.60
2022-07-25T21:33:51.767Z,21.80
2022-07-25T21:36:19.746Z,21.80
2022-07-25T21:38:49.006Z,21.80
2022-07-25T21:41:16.982Z,21.90
2022-07-25T21:43:45.252Z,22.10
2022-07-25T21:46:13.336Z,22.00
2022-07-25T21:48:58.883Z,21.70
2022-07-25T21:51:29.161Z,21.70
2022-07-25T21:54:10.216Z,21.60
2022-07-25T21:56:39.238Z,21.60
2022-07-25T21:59:07.387Z,21.60
2022-07-25T22:01:35.738Z,21.60
2022-07-25T22:04:03.935Z,21.60
2022-07-25T22:06:31.963Z,21.50
2022-07-25T22:08:59.923Z,21.20
2022-07-25T22:11:42.831Z,21.00
2022-07-25T22:14:14.991Z,21.10
2022-07-25T22:16:43.330Z,20.90
2022-07-25T22:19:11.651Z,20.90
2022-07-25T22:21:40.480Z,21.10
2022-07-25T22:24:09.330Z,21.20
2022-07-25T22:26:38.759Z,21.30
2022-07-25T22:29:06.968Z,21.30
2022-07-25T22:31:35.342Z,21.40
2022-07-25T22:34:03.368Z,21.40
2022-07-25T22:36:31.332Z,21.50
2022-07-25T22:38:59.273Z,21.60
2022-07-25T22:41:27.757Z,21.70
2022-07-25T22:43:59.622Z,21.70
2022-07-25T22:46:29.194Z,21.60
2022-07-25T22:48:58.571Z,21.50
2022-07-25T22:51:27.206Z,21.70
2022-07-25T22:53:55.639Z,21.60
2022-07-25T22:56:23.583Z,21.50
2022-07-25T22:58:51.819Z,21.30
2022-07-25T23:01:21.814Z,21.10
2022-07-25T23:03:50.696Z,21.00
2022-07-25T23:06:20.975Z,20.90
2022-07-25T23:08:49.396Z,20.90
2022-07-25T23:11:18.067Z,20.90
2022-07-25T23:13:46.016Z,21.00
2022-07-25T23:16:14.206Z,21.10
2022-07-25T23:18:43.617Z,21.20
2022-07-25T23:21:12.551Z,21.30
2022-07-25T23:23:40.574Z,21.40
2022-07-25T23:26:08.512Z,21.50
2022-07-25T23:28:36.413Z,21.40
2022-07-25T23:31:04.476Z,21.40
2022-07-25T23:33:32.482Z,21.50
2022-07-25T23:36:02.289Z,21.70
2022-07-25T23:38:30.265Z,21.80
2022-07-25T23:40:58.233Z,21.80
2022-07-25T23:43:55.938Z,21.90
2022-07-25T23:46:14.344Z,21.80
2022-07-25T23:48:43.120Z,21.80
2022-07-25T23:51:12.437Z,21.90
2022-07-25T23:53:40.474Z,21.80
2022-07-25T23:56:08.933Z,21.80
2022-07-25T23:58:36.928Z,21.70
